createdAt,value
2023-04-18T00:02:05.557Z,87.63
2023-04-18T00:04:33.079Z,87.66
2023-04-18T00:07:00.865Z,87.16
2023-04-18T00:09:29.640Z,87.13
2023-04-18T00:11:57.363Z,87.15
2023-04-18T00:14:24.727Z,86.81
2023-04-18T00:16:52.452Z,87.72
2023-04-18T00:19:19.849Z,87.14
2023-04-18T00:21:47.492Z,87.45
2023-04-18T00:24:15.031Z,87.94
2023-04-18T00:26:44.312Z,88.29
2023-04-18T00:29:11.787Z,88.33
2023-04-18T00:31:39.669Z,87.77
2023-04-18T00:34:07.080Z,87.59
2023-04-18T00:36:34.871Z,88.09
2023-04-18T00:39:02.158Z,87.87
2023-04-18T00:41:30.572Z,87.48
2023-04-18T00:43:59.692Z,88.13
2023-04-18T00:46:27.436Z,87.66
2023-04-18T00:48:54.871Z,87.82
2023-04-18T00:51:22.592Z,87.58
2023-04-18T00:53:50.452Z,87.39
2023-04-18T00:56:18.206Z,87.85
2023-04-18T00:58:45.681Z,88.23
2023-04-18T01:01:17.108Z,88.14
2023-04-18T01:06:12.179Z,87.13
2023-04-18T01:08:39.830Z,88.29
2023-04-18T01:11:07.700Z,88.35
2023-04-18T01:13:35.232Z,88.45
2023-04-18T01:16:04.901Z,87.86
2023-04-18T01:18:33.713Z,87.67
2023-04-18T01:21:02.513Z,87.55
2023-04-18T01:23:30.164Z,87.23
2023-04-18T01:25:59.570Z,86.49
2023-04-18T01:28:26.811Z,87.04
2023-04-18T01:30:56.858Z,87.27
2023-04-18T01:33:24.267Z,87.94
2023-04-18T01:36:19.345Z,88.02
2023-04-18T01:38:46.518Z,87.91
2023-04-18T01:41:15.581Z,87.71
2023-04-18T01:43:42.975Z,86.89
2023-04-18T01:46:10.618Z,86.40
2023-04-18T01:48:38.023Z,87.34
2023-04-18T01:51:05.864Z,87.01
2023-04-18T01:53:33.279Z,86.69
2023-04-18T01:56:00.957Z,86.87
2023-04-18T01:58:29.664Z,86.66
2023-04-18T02:00:57.436Z,86.35
2023-04-18T02:03:25.270Z,86.08
2023-04-18T02:05:53.163Z,85.73
2023-04-18T02:08:20.591Z,86.21
2023-04-18T02:10:48.309Z,86.28
2023-04-18T02:13:15.669Z,86.31
2023-04-18T02:15:45.437Z,86.53
2023-04-18T02:18:12.935Z,86.74
2023-04-18T02:20:40.534Z,87.34
2023-04-18T02:23:07.890Z,87.28
2023-04-18T02:25:35.965Z,87.38
2023-04-18T02:28:03.477Z,87.28
2023-04-18T02:30:31.459Z,87.13
2023-04-18T02:33:00.276Z,87.12
2023-04-18T02:35:29.688Z,87.16
2023-04-18T02:37:56.972Z,87.66
2023-04-18T02:40:24.522Z,87.53
2023-04-18T02:42:51.898Z,87.71
2023-04-18T02:45:19.693Z,88.15
2023-04-18T02:47:54.287Z,87.78
2023-04-18T02:50:25.282Z,88.25
2023-04-18T02:52:52.679Z,87.80
2023-04-18T02:55:20.506Z,87.76
2023-04-18T02:57:47.694Z,87.72
2023-04-18T03:00:15.663Z,87.23
2023-04-18T03:02:43.069Z,87.46
2023-04-18T03:05:12.526Z,87.46
2023-04-18T03:07:41.436Z,87.49
2023-04-18T03:10:09.930Z,87.27
2023-04-18T03:12:37.277Z,87.00
2023-04-18T03:15:06.589Z,86.98
2023-04-18T03:17:34.177Z,86.88
2023-04-18T03:20:01.974Z,87.30
2023-04-18T03:22:29.237Z,87.55
2023-04-18T03:24:58.470Z,87.02
2023-04-18T03:27:25.798Z,87.47
2023-04-18T03:29:53.871Z,87.76
2023-04-18T03:32:21.500Z,88.44
2023-04-18T03:34:49.398Z,88.77
2023-04-18T03:37:16.870Z,88.53
2023-04-18T03:39:44.515Z,88.16
2023-04-18T03:42:13.307Z,88.22
2023-04-18T03:44:40.912Z,88.67
2023-04-18T03:47:08.297Z,89.79
2023-04-18T03:49:35.893Z,89.42
2023-04-18T03:52:03.181Z,88.90
2023-04-18T03:54:30.690Z,89.19
2023-04-18T03:56:58.118Z,89.40
2023-04-18T03:59:27.930Z,89.24
2023-04-18T04:01:55.420Z,88.98
2023-04-18T04:04:23.310Z,88.50
2023-04-18T04:06:51.178Z,88.54
2023-04-18T04:09:19.073Z,88.70
2023-04-18T04:11:46.572Z,87.28
2023-04-18T04:14:14.533Z,87.19
2023-04-18T04:16:43.479Z,87.27
2023-04-18T04:19:11.310Z,87.40
2023-04-18T04:21:41.180Z,87.34
2023-04-18T04:24:08.885Z,87.65
2023-04-18T04:26:36.163Z,87.62
2023-04-18T04:29:06.409Z,87.54
2023-04-18T04:31:33.757Z,87.93
2023-04-18T04:34:02.995Z,87.85
2023-04-18T04:36:30.396Z,87.70
2023-04-18T04:38:58.042Z,88.20
2023-04-18T04:41:25.529Z,88.47
2023-04-18T04:43:53.155Z,88.58
2023-04-18T04:46:20.818Z,88.22
2023-04-18T04:48:48.712Z,89.06
2023-04-18T04:51:17.328Z,88.42
2023-04-18T04:53:44.985Z,88.54
2023-04-18T04:56:12.222Z,88.88
2023-04-18T04:58:40.036Z,89.29
2023-04-18T05:01:07.288Z,88.91
2023-04-18T05:03:35.389Z,89.59
2023-04-18T05:06:03.491Z,89.75
2023-04-18T05:08:32.434Z,89.80
2023-04-18T05:10:59.708Z,89.70
2023-04-18T05:13:27.356Z,89.50
2023-04-18T05:15:54.757Z,89.66
2023-04-18T05:18:22.526Z,90.23
2023-04-18T05:20:49.866Z,90.50
2023-04-18T05:23:17.456Z,90.24
2023-04-18T05:25:46.285Z,90.15
2023-04-18T05:28:13.888Z,89.91
2023-04-18T05:30:41.288Z,90.27
2023-04-18T05:33:09.055Z,89.58
2023-04-18T05:35:36.611Z,88.44
2023-04-18T05:38:04.331Z,89.31
2023-04-18T05:40:31.606Z,89.21
2023-04-18T05:43:00.649Z,89.53
2023-04-18T05:45:28.016Z,89.71
2023-04-18T05:47:58.640Z,89.22
2023-04-18T05:50:26.038Z,88.92
2023-04-18T05:52:53.744Z,88.85
2023-04-18T05:55:21.251Z,89.07
2023-04-18T05:57:48.908Z,89.29
2023-04-18T06:00:18.675Z,89.08
2023-04-18T06:02:46.849Z,89.23
2023-04-18T06:05:14.513Z,89.06
2023-04-18T06:07:42.771Z,88.97
2023-04-18T06:10:10.173Z,89.49
2023-04-18T06:12:37.815Z,90.32
2023-04-18T06:15:06.725Z,89.78
2023-04-18T06:17:35.943Z,90.20
2023-04-18T06:20:03.802Z,90.09
2023-04-18T06:22:31.395Z,90.56
2023-04-18T06:24:58.719Z,89.15
2023-04-18T06:27:31.387Z,89.64
2023-04-18T06:29:59.156Z,89.68
2023-04-18T06:32:26.834Z,89.05
2023-04-18T06:34:55.502Z,89.13
2023-04-18T06:37:26.270Z,88.99
2023-04-18T06:39:53.474Z,89.02
2023-04-18T06:42:22.579Z,89.68
2023-04-18T06:44:50.237Z,90.05
2023-04-18T06:47:18.130Z,89.59
2023-04-18T06:49:45.479Z,88.71
2023-04-18T06:52:14.716Z,89.26
2023-04-18T06:54:41.967Z,89.14
2023-04-18T06:57:09.815Z,88.58
2023-04-18T06:59:37.273Z,89.17
2023-04-18T07:02:05.213Z,89.04
2023-04-18T07:04:35.115Z,89.21
2023-04-18T07:07:03.092Z,89.58
2023-04-18T07:09:31.794Z,89.07
2023-04-18T07:11:59.521Z,90.14
2023-04-18T07:14:26.970Z,89.85
2023-04-18T07:16:54.803Z,90.30
2023-04-18T07:19:22.176Z,89.71
2023-04-18T07:21:50.041Z,89.87
2023-04-18T07:24:17.378Z,89.66
2023-04-18T07:26:46.525Z,89.74
2023-04-18T07:29:13.708Z,88.28
2023-04-18T07:31:41.664Z,88.20
2023-04-18T07:34:08.995Z,87.71
2023-04-18T07:36:36.924Z,87.79
2023-04-18T07:39:04.226Z,88.33
2023-04-18T07:41:31.874Z,88.92
2023-04-18T07:44:00.685Z,88.92
2023-04-18T07:46:28.757Z,88.14
2023-04-18T07:48:56.114Z,87.87
2023-04-18T07:51:23.613Z,88.53
2023-04-18T07:53:50.948Z,88.10
2023-04-18T07:56:19.273Z,88.04
2023-04-18T07:58:46.611Z,88.64
2023-04-18T08:01:15.813Z,88.42
2023-04-18T08:03:43.196Z,88.73
2023-04-18T08:06:11.000Z,87.89
2023-04-18T08:08:38.310Z,89.35
2023-04-18T08:11:06.283Z,88.74
2023-04-18T08:13:33.535Z,88.89
2023-04-18T08:16:01.105Z,88.37
2023-04-18T08:18:29.782Z,89.24
2023-04-18T08:20:57.640Z,89.11
2023-04-18T08:23:24.995Z,87.94
2023-04-18T08:25:52.644Z,87.76
2023-04-18T08:28:19.966Z,87.97
2023-04-18T08:30:47.731Z,86.46
2023-04-18T08:33:15.191Z,87.61
2023-04-18T08:35:44.206Z,87.01
2023-04-18T08:38:11.501Z,88.19
2023-04-18T08:40:39.117Z,87.95
2023-04-18T08:43:07.672Z,86.90
2023-04-18T08:45:37.689Z,86.71
2023-04-18T08:48:05.513Z,86.12
2023-04-18T08:50:33.510Z,86.62
2023-04-18T08:53:02.361Z,86.72
2023-04-18T08:55:30.011Z,86.47
2023-04-18T08:57:57.386Z,86.80
2023-04-18T09:00:25.353Z,86.91
2023-04-18T09:02:53.886Z,86.18
2023-04-18T09:05:21.992Z,86.07
2023-04-18T09:07:50.578Z,85.63
2023-04-18T09:10:28.583Z,86.52
2023-04-18T09:12:57.104Z,86.03
2023-04-18T09:15:26.275Z,86.59
2023-04-18T09:17:54.646Z,85.58
2023-04-18T09:20:30.939Z,86.06
2023-04-18T09:22:58.225Z,85.34
2023-04-18T09:25:29.434Z,85.50
2023-04-18T09:27:56.929Z,85.07
2023-04-18T09:30:37.091Z,85.72
2023-04-18T09:33:06.548Z,86.26
2023-04-18T09:35:34.209Z,86.26
2023-04-18T09:38:01.943Z,85.67
2023-04-18T09:40:31.802Z,84.68
2023-04-18T09:42:59.240Z,85.11
2023-04-18T09:45:27.502Z,85.79
2023-04-18T09:47:55.232Z,86.08
2023-04-18T09:50:23.102Z,84.89
2023-04-18T09:52:50.506Z,84.44
2023-04-18T09:55:19.497Z,85.83
2023-04-18T09:57:48.937Z,85.67
2023-04-18T10:00:22.349Z,85.02
2023-04-18T10:02:57.862Z,84.32
2023-04-18T10:05:27.350Z,84.15
2023-04-18T10:07:55.225Z,84.11
2023-04-18T10:10:23.627Z,84.16
2023-04-18T10:12:54.862Z,83.44
2023-04-18T10:15:24.426Z,84.01
2023-04-18T10:18:03.373Z,83.13
2023-04-18T10:20:33.638Z,83.18
2023-04-18T10:23:41.814Z,83.60
2023-04-18T10:26:11.972Z,82.79
2023-04-18T10:28:53.963Z,83.82
2023-04-18T10:31:22.899Z,83.42
2023-04-18T10:34:03.969Z,83.36
2023-04-18T10:36:34.780Z,82.86
2023-04-18T10:39:19.491Z,82.67
2023-04-18T10:41:50.752Z,81.43
2023-04-18T10:44:23.361Z,80.43
2023-04-18T10:47:20.180Z,81.07
2023-04-18T10:50:00.737Z,81.29
2023-04-18T10:52:28.607Z,80.82
2023-04-18T10:55:05.663Z,80.53
2023-04-18T10:57:41.790Z,79.90
2023-04-18T11:00:16.536Z,81.07
2023-04-18T11:02:52.785Z,81.14
2023-04-18T11:05:22.942Z,80.68
2023-04-18T11:07:53.484Z,80.61
2023-04-18T11:10:23.468Z,80.42
2023-04-18T11:12:52.596Z,80.07
2023-04-18T11:15:23.592Z,79.70
2023-04-18T11:17:59.764Z,80.63
2023-04-18T11:20:27.765Z,80.60
2023-04-18T11:22:57.021Z,80.63
2023-04-18T11:25:26.644Z,79.35
2023-04-18T11:27:54.835Z,79.58
2023-04-18T11:30:23.714Z,79.83
2023-04-18T11:32:53.361Z,80.11
2023-04-18T11:35:20.609Z,80.23
2023-04-18T11:37:49.926Z,78.27
2023-04-18T11:40:36.394Z,78.27
2023-04-18T11:43:27.106Z,76.54
2023-04-18T11:46:37.492Z,77.68
2023-04-18T11:49:05.057Z,77.56
2023-04-18T11:51:35.013Z,76.63
2023-04-18T11:54:04.305Z,76.99
2023-04-18T11:56:33.501Z,76.42
2023-04-18T11:59:09.008Z,77.96
2023-04-18T12:01:38.325Z,77.51
2023-04-18T12:04:07.296Z,78.17
2023-04-18T12:06:47.951Z,78.83
2023-04-18T12:09:15.850Z,79.26
2023-04-18T12:11:43.922Z,78.55
2023-04-18T12:14:19.902Z,78.86
2023-04-18T12:16:51.045Z,78.50
2023-04-18T12:19:18.823Z,79.91
2023-04-18T12:21:59.681Z,78.46
2023-04-18T12:24:27.342Z,79.29
2023-04-18T12:26:55.578Z,78.88
2023-04-18T12:29:22.870Z,79.54
2023-04-18T12:31:52.175Z,79.58
2023-04-18T12:34:19.660Z,80.71
2023-04-18T12:36:47.361Z,79.86
2023-04-18T12:39:14.739Z,80.58
2023-04-18T12:41:43.457Z,80.17
2023-04-18T12:44:10.824Z,79.88
2023-04-18T12:46:38.569Z,79.69
2023-04-18T12:49:08.356Z,80.29
2023-04-18T12:51:35.988Z,80.39
2023-04-18T12:54:03.480Z,81.02
2023-04-18T12:56:31.112Z,81.41
2023-04-18T12:58:58.609Z,82.01
2023-04-18T13:01:26.651Z,81.88
2023-04-18T13:04:08.371Z,81.18
2023-04-18T13:06:41.506Z,81.31
2023-04-18T13:09:08.916Z,80.69
2023-04-18T13:11:36.657Z,80.14
2023-04-18T13:14:04.007Z,80.73
2023-04-18T13:16:31.707Z,79.86
2023-04-18T13:18:59.088Z,79.51
2023-04-18T13:21:26.690Z,79.14
2023-04-18T13:23:55.633Z,78.75
2023-04-18T13:26:23.532Z,77.20
2023-04-18T13:28:50.863Z,77.68
2023-04-18T13:31:18.910Z,77.85
2023-04-18T13:33:46.138Z,76.04
2023-04-18T13:36:13.996Z,75.85
2023-04-18T13:38:41.847Z,75.67
2023-04-18T13:41:13.238Z,74.30
2023-04-18T13:43:40.891Z,75.36
2023-04-18T13:46:08.564Z,74.29
2023-04-18T13:48:35.997Z,75.39
2023-04-18T13:51:03.759Z,75.79
2023-04-18T13:53:31.302Z,74.64
2023-04-18T13:55:59.119Z,74.63
2023-04-18T13:58:28.073Z,74.09
2023-04-18T14:00:55.778Z,75.86
2023-04-18T14:03:26.372Z,73.88
2023-04-18T14:05:54.197Z,74.92
2023-04-18T14:08:21.828Z,73.81
2023-04-18T14:10:49.908Z,75.25
2023-04-18T14:13:17.372Z,73.83
2023-04-18T14:15:46.409Z,73.93
2023-04-18T14:18:13.832Z,75.50
2023-04-18T14:20:41.514Z,75.19
2023-04-18T14:23:08.815Z,74.43
2023-04-18T14:25:36.690Z,73.54
2023-04-18T14:28:06.221Z,74.02
2023-04-18T14:30:33.805Z,73.24
2023-04-18T14:33:03.308Z,71.85
2023-04-18T14:35:30.889Z,72.45
2023-04-18T14:37:58.427Z,73.20
2023-04-18T14:40:27.166Z,72.55
2023-04-18T14:42:54.760Z,72.96
2023-04-18T14:45:22.467Z,71.72
2023-04-18T14:47:49.737Z,71.59
2023-04-18T14:50:19.141Z,72.63
2023-04-18T14:52:46.488Z,72.70
2023-04-18T14:55:14.160Z,71.36
2023-04-18T14:57:41.480Z,72.67
2023-04-18T15:00:09.924Z,71.35
2023-04-18T15:02:37.512Z,70.17
2023-04-18T15:05:06.302Z,71.75
2023-04-18T15:07:35.265Z,70.96
2023-04-18T15:10:02.914Z,69.53
2023-04-18T15:12:30.130Z,70.73
2023-04-18T15:14:59.490Z,70.06
2023-04-18T15:17:26.865Z,70.32
2023-04-18T15:19:54.615Z,69.95
2023-04-18T15:22:22.110Z,68.52
2023-04-18T15:24:51.139Z,68.24
2023-04-18T15:27:18.405Z,68.57
2023-04-18T15:29:46.169Z,68.84
2023-04-18T15:32:13.598Z,68.53
2023-04-18T15:34:41.364Z,68.99
2023-04-18T15:37:08.828Z,68.79
2023-04-18T15:39:36.637Z,69.17
2023-04-18T15:42:06.338Z,69.53
2023-04-18T15:44:34.000Z,69.17
2023-04-18T15:47:01.545Z,70.10
2023-04-18T15:49:29.115Z,70.17
2023-04-18T15:51:56.456Z,70.39
2023-04-18T15:54:24.097Z,69.82
2023-04-18T15:56:51.431Z,70.92
2023-04-18T15:59:20.506Z,70.06
2023-04-18T16:01:47.815Z,70.71
2023-04-18T16:04:16.230Z,70.54
2023-04-18T16:06:43.689Z,70.43
2023-04-18T16:09:11.255Z,70.74
2023-04-18T16:11:38.488Z,70.61
2023-04-18T16:14:06.187Z,70.39
2023-04-18T16:16:34.948Z,70.70
2023-04-18T16:19:02.526Z,70.63
2023-04-18T16:21:29.901Z,70.18
2023-04-18T16:23:58.523Z,71.01
2023-04-18T16:26:25.977Z,71.05
2023-04-18T16:28:53.497Z,70.75
2023-04-18T16:31:20.843Z,70.93
2023-04-18T16:33:50.053Z,71.05
2023-04-18T16:36:17.403Z,71.08
2023-04-18T16:38:45.178Z,70.85
2023-04-18T16:41:12.573Z,70.58
2023-04-18T16:43:40.309Z,71.31
2023-04-18T16:46:11.374Z,71.41
2023-04-18T16:48:39.149Z,71.95
2023-04-18T16:51:09.187Z,72.67
2023-04-18T16:53:36.906Z,72.29
2023-04-18T16:56:04.636Z,72.28
2023-04-18T16:58:32.259Z,72.11
2023-04-18T17:01:02.230Z,72.54
2023-04-18T17:03:30.473Z,71.92
2023-04-18T17:05:58.013Z,72.62
2023-04-18T17:08:27.223Z,72.15
2023-04-18T17:10:55.060Z,72.40
2023-04-18T17:13:22.786Z,72.90
2023-04-18T17:15:50.520Z,72.63
2023-04-18T17:18:18.626Z,72.99
2023-04-18T17:20:45.854Z,73.19
2023-04-18T17:23:13.608Z,72.79
2023-04-18T17:25:42.267Z,72.46
2023-04-18T17:28:10.297Z,72.24
2023-04-18T17:30:40.066Z,72.75
2023-04-18T17:33:08.273Z,72.03
2023-04-18T17:35:35.603Z,72.50
2023-04-18T17:38:03.656Z,72.92
2023-04-18T17:40:31.837Z,72.96
2023-04-18T17:43:01.192Z,73.54
2023-04-18T17:45:28.440Z,73.35
2023-04-18T17:47:56.197Z,73.27
2023-04-18T17:50:23.701Z,73.52
2023-04-18T17:52:51.561Z,73.66
2023-04-18T17:55:19.041Z,74.10
2023-04-18T17:57:46.881Z,74.11
2023-04-18T18:00:16.778Z,74.61
2023-04-18T18:02:44.816Z,74.63
2023-04-18T18:05:12.219Z,75.01
2023-04-18T18:07:40.378Z,75.33
2023-04-18T18:10:09.643Z,75.69
2023-04-18T18:12:37.300Z,75.83
2023-04-18T18:15:05.791Z,76.04
2023-04-18T18:17:35.303Z,76.33
2023-04-18T18:20:02.691Z,77.79
2023-04-18T18:22:30.551Z,78.00
2023-04-18T18:24:58.099Z,77.97
2023-04-18T18:27:26.138Z,79.09
2023-04-18T18:29:53.547Z,78.51
2023-04-18T18:32:21.164Z,77.88
2023-04-18T18:34:49.940Z,77.94
2023-04-18T18:37:17.662Z,78.08
2023-04-18T18:39:44.910Z,77.82
2023-04-18T18:42:12.662Z,77.80
2023-04-18T18:44:39.934Z,77.56
2023-04-18T18:47:07.908Z,77.41
2023-04-18T18:49:35.864Z,77.08
2023-04-18T18:52:05.319Z,77.45
2023-04-18T18:54:32.701Z,77.10
2023-04-18T18:57:00.787Z,77.33
2023-04-18T18:59:28.044Z,77.48
2023-04-18T19:01:56.406Z,77.31
2023-04-18T19:04:25.141Z,77.51
2023-04-18T19:06:53.306Z,77.33
2023-04-18T19:09:22.468Z,77.62
2023-04-18T19:11:50.080Z,77.62
2023-04-18T19:14:17.414Z,77.78
2023-04-18T19:16:45.251Z,77.62
2023-04-18T19:19:13.238Z,77.79
2023-04-18T19:21:41.459Z,77.60
2023-04-18T19:24:08.992Z,77.35
2023-04-18T19:26:38.320Z,77.55
2023-04-18T19:29:06.605Z,77.23
2023-04-18T19:31:34.679Z,76.98
2023-04-18T19:34:02.193Z,77.13
2023-04-18T19:36:30.079Z,77.48
2023-04-18T19:38:57.361Z,77.35
2023-04-18T19:41:28.544Z,78.04
2023-04-18T19:43:57.748Z,77.67
2023-04-18T19:46:25.570Z,77.83
2023-04-18T19:48:53.181Z,77.67
2023-04-18T19:51:20.977Z,77.48
2023-04-18T19:53:48.578Z,77.51
2023-04-18T19:56:16.196Z,77.40
2023-04-18T19:58:43.684Z,77.40
2023-04-18T20:01:14.067Z,77.23
2023-04-18T20:03:44.581Z,77.85
2023-04-18T20:06:13.113Z,77.63
2023-04-18T20:08:41.414Z,77.44
2023-04-18T20:11:10.447Z,77.57
2023-04-18T20:13:38.000Z,76.74
2023-04-18T20:16:07.478Z,76.21
2023-04-18T20:18:38.057Z,75.71
2023-04-18T20:21:07.132Z,75.47
2023-04-18T20:23:34.650Z,75.33
2023-04-18T20:26:02.735Z,75.66
2023-04-18T20:28:30.475Z,75.81
2023-04-18T20:30:58.228Z,76.48
2023-04-18T20:33:25.885Z,77.00
2023-04-18T20:35:55.384Z,76.68
2023-04-18T20:38:23.665Z,76.88
2023-04-18T20:40:53.083Z,77.10
2023-04-18T20:43:20.591Z,76.75
2023-04-18T20:45:48.750Z,77.03
2023-04-18T20:48:16.155Z,76.95
2023-04-18T20:50:43.830Z,77.13
2023-04-18T20:53:12.579Z,76.95
2023-04-18T20:55:40.147Z,77.10
2023-04-18T20:58:07.646Z,77.28
2023-04-18T21:00:35.500Z,76.98
2023-04-18T21:03:03.090Z,76.87
2023-04-18T21:05:32.554Z,76.73
2023-04-18T21:07:59.845Z,76.75
2023-04-18T21:10:29.419Z,77.70
2023-04-18T21:12:56.722Z,77.79
2023-04-18T21:15:24.771Z,77.62
2023-04-18T21:17:52.333Z,77.12
2023-04-18T21:20:20.431Z,76.70
2023-04-18T21:22:47.672Z,77.12
2023-04-18T21:25:15.569Z,76.96
2023-04-18T21:27:44.256Z,76.57
2023-04-18T21:30:12.973Z,76.22
2023-04-18T21:32:40.514Z,76.17
2023-04-18T21:35:09.134Z,75.76
2023-04-18T21:37:36.581Z,75.32
2023-04-18T21:40:05.568Z,75.55
2023-04-18T21:42:33.014Z,74.75
2023-04-18T21:45:02.188Z,74.26
2023-04-18T21:47:29.899Z,74.32
2023-04-18T21:49:57.794Z,74.43
2023-04-18T21:52:25.285Z,74.65
2023-04-18T21:54:53.197Z,74.39
2023-04-18T21:57:20.549Z,74.04
2023-04-18T21:59:48.744Z,74.08
2023-04-18T22:02:17.600Z,74.18
2023-04-18T22:04:45.359Z,73.86
2023-04-18T22:07:12.752Z,74.01
2023-04-18T22:09:40.550Z,73.47
2023-04-18T22:12:08.262Z,73.76
2023-04-18T22:14:36.177Z,74.00
2023-04-18T22:17:03.512Z,73.93
2023-04-18T22:19:33.084Z,74.04
2023-04-18T22:22:00.607Z,74.44
2023-04-18T22:24:28.385Z,74.96
2023-04-18T22:26:55.952Z,75.30
2023-04-18T22:29:23.630Z,75.36
2023-04-18T22:31:51.101Z,75.10
2023-04-18T22:34:19.169Z,75.46
2023-04-18T22:36:48.019Z,75.64
2023-04-18T22:39:16.051Z,75.40
2023-04-18T22:41:43.242Z,75.81
2023-04-18T22:44:10.850Z,76.02
2023-04-18T22:46:38.573Z,75.86
2023-04-18T22:49:06.545Z,75.73
2023-04-18T22:51:33.958Z,76.06
2023-04-18T22:54:03.387Z,75.55
2023-04-18T22:56:30.785Z,75.53
2023-04-18T22:58:58.537Z,76.77
2023-04-18T23:01:25.819Z,76.38
2023-04-18T23:03:53.967Z,76.74
2023-04-18T23:06:21.496Z,76.86
2023-04-18T23:08:50.143Z,77.16
2023-04-18T23:11:18.852Z,77.05
2023-04-18T23:13:46.629Z,77.38
2023-04-18T23:16:14.435Z,77.36
2023-04-18T23:18:47.797Z,76.92
2023-04-18T23:21:21.095Z,77.42
2023-04-18T23:23:54.556Z,77.15
2023-04-18T23:26:24.524Z,76.70
2023-04-18T23:28:52.552Z,76.65
2023-04-18T23:31:19.891Z,75.79
2023-04-18T23:33:47.619Z,75.87
2023-04-18T23:36:14.857Z,75.60
2023-04-18T23:38:42.793Z,76.26
2023-04-18T23:41:10.100Z,77.00
2023-04-18T23:43:39.443Z,77.86
2023-04-18T23:46:06.742Z,77.70
2023-04-18T23:48:34.353Z,77.54
2023-04-18T23:51:01.642Z,76.65
2023-04-18T23:53:29.340Z,76.98
2023-04-18T23:55:56.745Z,76.52
2023-04-18T23:58:24.700Z,76.78
